sensor_id;sensor_type;location;lat;lon;timestamp;noise_LAeq;noise_LA_min;noise_LA_max;noise_LA01;noise_LA95
40465;Laerm;30489;48.982;8.394;2022-09-16T00:00:22;38.86;35.94;41.22;;
40465;Laerm;30489;48.982;8.394;2022-09-16T00:02:33;38.83;36.20;41.61;;
40465;Laerm;30489;48.982;8.394;2022-09-16T00:04:43;38.82;36.20;40.89;;
40465;Laerm;30489;48.982;8.394;2022-09-16T00:06:53;38.79;36.20;40.71;;
40465;Laerm;30489;48.982;8.394;2022-09-16T00:09:03;38.80;36.20;40.89;;
40465;Laerm;30489;48.982;8.394;2022-09-16T00:11:14;38.76;35.94;47.20;;
40465;Laerm;30489;48.982;8.394;2022-09-16T00:13:24;38.81;36.20;40.71;;
40465;Laerm;30489;48.982;8.394;2022-09-16T00:15:35;38.83;35.94;40.80;;
40465;Laerm;30489;48.982;8.394;2022-09-16T00:17:45;38.79;36.20;41.14;;
40465;Laerm;30489;48.982;8.394;2022-09-16T00:19:56;38.82;36.20;40.98;;
40465;Laerm;30489;48.982;8.394;2022-09-16T00:22:06;38.79;35.59;40.71;;
40465;Laerm;30489;48.982;8.394;2022-09-16T00:24:17;38.75;36.20;41.14;;
40465;Laerm;30489;48.982;8.394;2022-09-16T00:26:27;38.81;36.20;40.71;;
40465;Laerm;30489;48.982;8.394;2022-09-16T00:28:38;38.86;35.66;40.98;;
40465;Laerm;30489;48.982;8.394;2022-09-16T00:30:49;38.72;35.94;40.71;;
40465;Laerm;30489;48.982;8.394;2022-09-16T00:32:59;38.80;35.94;40.89;;
40465;Laerm;30489;48.982;8.394;2022-09-16T00:35:09;38.73;35.94;40.71;;
40465;Laerm;30489;48.982;8.394;2022-09-16T00:37:20;38.92;36.20;41.06;;
40465;Laerm;30489;48.982;8.394;2022-09-16T00:39:30;38.82;36.20;40.89;;
40465;Laerm;30489;48.982;8.394;2022-09-16T00:41:40;38.76;36.20;41.06;;
40465;Laerm;30489;48.982;8.394;2022-09-16T00:43:58;38.77;35.94;40.53;;
40465;Laerm;30489;48.982;8.394;2022-09-16T00:46:08;38.79;36.20;41.68;;
40465;Laerm;30489;48.982;8.394;2022-09-16T00:48:19;38.80;35.94;40.71;;
40465;Laerm;30489;48.982;8.394;2022-09-16T00:50:34;38.87;35.94;40.80;;
40465;Laerm;30489;48.982;8.394;2022-09-16T00:52:47;38.82;35.94;40.80;;
40465;Laerm;30489;48.982;8.394;2022-09-16T00:54:59;38.90;35.66;40.89;;
40465;Laerm;30489;48.982;8.394;2022-09-16T00:57:11;38.80;35.94;41.14;;
40465;Laerm;30489;48.982;8.394;2022-09-16T00:59:24;38.83;36.45;41.22;;
40465;Laerm;30489;48.982;8.394;2022-09-16T01:01:35;38.85;35.94;40.89;;
40465;Laerm;30489;48.982;8.394;2022-09-16T01:03:48;38.85;35.94;41.22;;
40465;Laerm;30489;48.982;8.394;2022-09-16T01:05:59;38.83;35.94;41.14;;
40465;Laerm;30489;48.982;8.394;2022-09-16T01:08:09;38.86;36.20;41.14;;
40465;Laerm;30489;48.982;8.394;2022-09-16T01:10:21;38.75;36.20;40.98;;
40465;Laerm;30489;48.982;8.394;2022-09-16T01:12:31;38.80;36.20;40.80;;
40465;Laerm;30489;48.982;8.394;2022-09-16T01:14:42;38.77;36.20;40.96;;
40465;Laerm;30489;48.982;8.394;2022-09-16T01:36:23;38.80;35.94;40.98;;
40465;Laerm;30489;48.982;8.394;2022-09-16T01:38:54;38.75;36.20;40.80;;
40465;Laerm;30489;48.982;8.394;2022-09-16T01:41:11;38.70;35.94;40.89;;
40465;Laerm;30489;48.982;8.394;2022-09-16T01:45:59;38.70;35.94;40.98;;
40465;Laerm;30489;48.982;8.394;2022-09-16T01:55:10;38.71;35.66;40.89;;
40465;Laerm;30489;48.982;8.394;2022-09-16T01:57:37;38.69;34.69;41.30;;
40465;Laerm;30489;48.982;8.394;2022-09-16T01:59:55;38.69;35.66;40.71;;
40465;Laerm;30489;48.982;8.394;2022-09-16T02:02:13;38.68;35.66;40.89;;
40465;Laerm;30489;48.982;8.394;2022-09-16T02:04:34;38.71;35.36;40.80;;
40465;Laerm;30489;48.982;8.394;2022-09-16T02:06:46;38.63;35.94;40.71;;
40465;Laerm;30489;48.982;8.394;2022-09-16T02:09:03;38.68;35.36;40.71;;
40465;Laerm;30489;48.982;8.394;2022-09-16T02:11:15;38.70;36.20;40.89;;
40465;Laerm;30489;48.982;8.394;2022-09-16T02:13:27;38.70;35.94;40.89;;
40465;Laerm;30489;48.982;8.394;2022-09-16T02:15:38;38.69;36.20;40.89;;
40465;Laerm;30489;48.982;8.394;2022-09-16T02:17:51;38.66;35.94;40.89;;
40465;Laerm;30489;48.982;8.394;2022-09-16T02:20:06;38.67;35.66;40.89;;
40465;Laerm;30489;48.982;8.394;2022-09-16T02:22:19;38.63;35.94;40.62;;
40465;Laerm;30489;48.982;8.394;2022-09-16T02:24:31;38.66;35.66;40.71;;
40465;Laerm;30489;48.982;8.394;2022-09-16T02:26:50;38.66;35.66;40.80;;
40465;Laerm;30489;48.982;8.394;2022-09-16T02:29:02;38.65;35.66;40.89;;
40465;Laerm;30489;48.982;8.394;2022-09-16T02:31:16;38.70;36.20;40.62;;
40465;Laerm;30489;48.982;8.394;2022-09-16T02:33:30;38.70;35.66;40.62;;
40465;Laerm;30489;48.982;8.394;2022-09-16T02:35:43;38.72;35.94;40.89;;
40465;Laerm;30489;48.982;8.394;2022-09-16T02:37:55;38.68;35.59;40.80;;
40465;Laerm;30489;48.982;8.394;2022-09-16T02:40:12;41.96;35.94;74.97;;
40465;Laerm;30489;48.982;8.394;2022-09-16T02:42:24;38.73;35.66;40.71;;
40465;Laerm;30489;48.982;8.394;2022-09-16T02:44:34;38.72;35.94;40.98;;
40465;Laerm;30489;48.982;8.394;2022-09-16T02:49:25;38.64;35.94;40.71;;
40465;Laerm;30489;48.982;8.394;2022-09-16T02:56:14;38.69;35.94;40.80;;
40465;Laerm;30489;48.982;8.394;2022-09-16T02:58:28;38.67;35.94;40.98;;
40465;Laerm;30489;48.982;8.394;2022-09-16T03:00:40;38.67;35.94;40.71;;
40465;Laerm;30489;48.982;8.394;2022-09-16T03:02:52;38.62;35.94;40.89;;
40465;Laerm;30489;48.982;8.394;2022-09-16T03:05:03;38.63;35.36;40.80;;
40465;Laerm;30489;48.982;8.394;2022-09-16T03:07:13;38.62;35.36;41.30;;
40465;Laerm;30489;48.982;8.394;2022-09-16T03:09:24;38.68;35.94;41.61;;
40465;Laerm;30489;48.982;8.394;2022-09-16T03:16:49;38.72;35.94;42.76;;
40465;Laerm;30489;48.982;8.394;2022-09-16T03:19:17;38.69;35.94;41.06;;
40465;Laerm;30489;48.982;8.394;2022-09-16T03:21:41;38.69;35.66;40.80;;
40465;Laerm;30489;48.982;8.394;2022-09-16T03:23:55;38.71;36.20;41.14;;
40465;Laerm;30489;48.982;8.394;2022-09-16T03:28:22;38.75;35.94;41.06;;
40465;Laerm;30489;48.982;8.394;2022-09-16T03:30:36;38.79;36.20;41.38;;
40465;Laerm;30489;48.982;8.394;2022-09-16T03:35:07;38.76;35.36;40.89;;
40465;Laerm;30489;48.982;8.394;2022-09-16T03:37:20;38.69;35.94;40.80;;
40465;Laerm;30489;48.982;8.394;2022-09-16T03:39:32;38.71;35.66;40.89;;
40465;Laerm;30489;48.982;8.394;2022-09-16T03:41:43;38.68;35.94;40.71;;
40465;Laerm;30489;48.982;8.394;2022-09-16T03:43:54;38.67;35.04;41.14;;
40465;Laerm;30489;48.982;8.394;2022-09-16T03:46:08;38.69;36.10;40.80;;
40465;Laerm;30489;48.982;8.394;2022-09-16T03:48:19;38.73;36.20;40.98;;
40465;Laerm;30489;48.982;8.394;2022-09-16T03:50:29;38.71;35.94;41.68;;
40465;Laerm;30489;48.982;8.394;2022-09-16T03:52:39;38.69;35.94;43.34;;
40465;Laerm;30489;48.982;8.394;2022-09-16T03:54:49;38.71;35.94;41.46;;
40465;Laerm;30489;48.982;8.394;2022-09-16T03:56:59;38.70;36.20;40.89;;
40465;Laerm;30489;48.982;8.394;2022-09-16T03:59:10;38.70;35.66;41.38;;
40465;Laerm;30489;48.982;8.394;2022-09-16T04:01:20;38.72;35.94;41.06;;
40465;Laerm;30489;48.982;8.394;2022-09-16T04:03:30;38.70;35.94;40.89;;
40465;Laerm;30489;48.982;8.394;2022-09-16T04:05:40;38.69;35.94;41.06;;
40465;Laerm;30489;48.982;8.394;2022-09-16T04:07:51;38.71;36.45;40.89;;
40465;Laerm;30489;48.982;8.394;2022-09-16T04:10:01;38.69;35.94;41.53;;
40465;Laerm;30489;48.982;8.394;2022-09-16T04:12:11;38.65;35.94;40.80;;
40465;Laerm;30489;48.982;8.394;2022-09-16T04:14:22;38.68;35.66;40.80;;
40465;Laerm;30489;48.982;8.394;2022-09-16T04:16:32;38.67;35.66;40.80;;
40465;Laerm;30489;48.982;8.394;2022-09-16T04:18:43;38.66;35.66;41.06;;
40465;Laerm;30489;48.982;8.394;2022-09-16T04:20:56;38.67;36.20;40.89;;
40465;Laerm;30489;48.982;8.394;2022-09-16T04:23:07;38.61;35.66;40.89;;
40465;Laerm;30489;48.982;8.394;2022-09-16T04:25:17;38.65;35.94;40.89;;
40465;Laerm;30489;48.982;8.394;2022-09-16T04:27:28;38.66;35.66;40.53;;
40465;Laerm;30489;48.982;8.394;2022-09-16T04:29:38;38.63;35.94;40.80;;
40465;Laerm;30489;48.982;8.394;2022-09-16T04:31:48;38.63;35.36;40.80;;
40465;Laerm;30489;48.982;8.394;2022-09-16T04:33:59;40.48;35.66;71.42;;
40465;Laerm;30489;48.982;8.394;2022-09-16T04:36:13;38.58;35.66;40.71;;
40465;Laerm;30489;48.982;8.394;2022-09-16T04:38:24;38.56;35.04;41.61;;
40465;Laerm;30489;48.982;8.394;2022-09-16T04:40:34;38.55;35.94;40.89;;
40465;Laerm;30489;48.982;8.394;2022-09-16T04:42:48;38.53;35.86;41.38;;
40465;Laerm;30489;48.982;8.394;2022-09-16T04:44:59;38.57;35.36;40.80;;
40465;Laerm;30489;48.982;8.394;2022-09-16T04:47:09;38.59;35.66;41.06;;
40465;Laerm;30489;48.982;8.394;2022-09-16T04:49:19;38.62;35.36;41.46;;
40465;Laerm;30489;48.982;8.394;2022-09-16T04:51:29;38.60;35.66;40.71;;
40465;Laerm;30489;48.982;8.394;2022-09-16T04:53:41;38.62;35.66;40.89;;
40465;Laerm;30489;48.982;8.394;2022-09-16T04:55:53;38.68;35.04;54.51;;
40465;Laerm;30489;48.982;8.394;2022-09-16T04:58:03;38.63;35.36;41.38;;
40465;Laerm;30489;48.982;8.394;2022-09-16T05:00:13;38.64;35.66;40.89;;
40465;Laerm;30489;48.982;8.394;2022-09-16T05:02:24;38.65;35.36;40.89;;
40465;Laerm;30489;48.982;8.394;2022-09-16T05:04:34;38.67;35.94;40.98;;
40465;Laerm;30489;48.982;8.394;2022-09-16T05:06:44;38.73;35.94;41.30;;
40465;Laerm;30489;48.982;8.394;2022-09-16T05:08:55;38.65;36.20;41.38;;
40465;Laerm;30489;48.982;8.394;2022-09-16T05:11:09;38.62;36.20;41.30;;
40465;Laerm;30489;48.982;8.394;2022-09-16T05:13:21;38.57;35.66;40.71;;
40465;Laerm;30489;48.982;8.394;2022-09-16T05:15:32;38.56;35.86;41.30;;
40465;Laerm;30489;48.982;8.394;2022-09-16T05:17:42;38.57;35.36;40.71;;
40465;Laerm;30489;48.982;8.394;2022-09-16T05:19:53;38.59;35.94;41.22;;
40465;Laerm;30489;48.982;8.394;2022-09-16T05:22:03;38.59;35.66;40.89;;
40465;Laerm;30489;48.982;8.394;2022-09-16T05:24:16;38.56;35.66;40.89;;
40465;Laerm;30489;48.982;8.394;2022-09-16T05:26:27;38.54;35.66;40.43;;
40465;Laerm;30489;48.982;8.394;2022-09-16T05:28:37;38.58;35.66;40.53;;
40465;Laerm;30489;48.982;8.394;2022-09-16T05:30:48;38.59;35.94;40.80;;
40465;Laerm;30489;48.982;8.394;2022-09-16T05:32:58;38.64;35.94;40.71;;
40465;Laerm;30489;48.982;8.394;2022-09-16T05:35:08;38.58;35.66;40.62;;
40465;Laerm;30489;48.982;8.394;2022-09-16T05:37:19;38.59;35.66;40.71;;
40465;Laerm;30489;48.982;8.394;2022-09-16T05:39:29;38.61;36.20;40.62;;
40465;Laerm;30489;48.982;8.394;2022-09-16T05:41:39;38.58;36.20;40.43;;
40465;Laerm;30489;48.982;8.394;2022-09-16T05:43:49;38.60;35.94;40.71;;
40465;Laerm;30489;48.982;8.394;2022-09-16T05:46:00;38.58;35.94;40.80;;
40465;Laerm;30489;48.982;8.394;2022-09-16T05:48:10;38.63;35.94;40.53;;
40465;Laerm;30489;48.982;8.394;2022-09-16T05:50:20;38.57;35.66;40.71;;
40465;Laerm;30489;48.982;8.394;2022-09-16T05:52:31;38.57;36.20;40.71;;
40465;Laerm;30489;48.982;8.394;2022-09-16T05:54:41;38.56;35.94;40.80;;
40465;Laerm;30489;48.982;8.394;2022-09-16T05:56:51;38.57;35.36;40.62;;
40465;Laerm;30489;48.982;8.394;2022-09-16T05:59:01;38.55;35.86;40.80;;
40465;Laerm;30489;48.982;8.394;2022-09-16T06:01:13;38.57;35.36;40.80;;
40465;Laerm;30489;48.982;8.394;2022-09-16T06:03:23;38.59;35.36;40.71;;
40465;Laerm;30489;48.982;8.394;2022-09-16T06:05:34;38.58;35.66;40.62;;
40465;Laerm;30489;48.982;8.394;2022-09-16T06:07:44;38.57;35.66;40.53;;
40465;Laerm;30489;48.982;8.394;2022-09-16T06:09:54;38.56;35.94;40.71;;
40465;Laerm;30489;48.982;8.394;2022-09-16T06:12:04;38.59;36.20;40.80;;
40465;Laerm;30489;48.982;8.394;2022-09-16T06:14:15;38.67;35.94;41.06;;
40465;Laerm;30489;48.982;8.394;2022-09-16T06:16:26;38.58;35.36;40.62;;
40465;Laerm;30489;48.982;8.394;2022-09-16T06:18:37;38.59;35.36;40.53;;
40465;Laerm;30489;48.982;8.394;2022-09-16T06:20:47;38.62;36.20;40.80;;
40465;Laerm;30489;48.982;8.394;2022-09-16T06:22:58;38.60;35.36;41.06;;
40465;Laerm;30489;48.982;8.394;2022-09-16T06:25:08;38.60;35.66;40.62;;
40465;Laerm;30489;48.982;8.394;2022-09-16T06:27:18;38.58;35.66;41.06;;
40465;Laerm;30489;48.982;8.394;2022-09-16T06:29:28;38.53;35.66;40.53;;
40465;Laerm;30489;48.982;8.394;2022-09-16T06:31:39;38.60;35.94;44.04;;
40465;Laerm;30489;48.982;8.394;2022-09-16T06:33:49;38.59;35.94;40.62;;
40465;Laerm;30489;48.982;8.394;2022-09-16T06:36:04;38.60;35.94;41.06;;
40465;Laerm;30489;48.982;8.394;2022-09-16T06:38:14;38.59;35.36;40.71;;
40465;Laerm;30489;48.982;8.394;2022-09-16T06:40:24;38.60;35.94;41.46;;
40465;Laerm;30489;48.982;8.394;2022-09-16T06:42:34;38.60;35.36;40.89;;
40465;Laerm;30489;48.982;8.394;2022-09-16T06:44:45;38.62;35.94;41.68;;
40465;Laerm;30489;48.982;8.394;2022-09-16T06:46:55;38.62;35.66;41.14;;
40465;Laerm;30489;48.982;8.394;2022-09-16T06:49:05;38.61;35.94;40.62;;
40465;Laerm;30489;48.982;8.394;2022-09-16T06:51:16;38.61;35.94;40.62;;
40465;Laerm;30489;48.982;8.394;2022-09-16T06:53:27;38.61;35.66;40.53;;
40465;Laerm;30489;48.982;8.394;2022-09-16T06:55:38;38.60;35.94;40.89;;
40465;Laerm;30489;48.982;8.394;2022-09-16T06:57:48;38.57;35.36;40.89;;
40465;Laerm;30489;48.982;8.394;2022-09-16T06:59:58;38.62;35.36;40.98;;
40465;Laerm;30489;48.982;8.394;2022-09-16T07:02:09;38.66;35.36;40.89;;
40465;Laerm;30489;48.982;8.394;2022-09-16T07:04:19;38.61;35.36;40.53;;
40465;Laerm;30489;48.982;8.394;2022-09-16T07:06:30;38.66;35.94;40.98;;
40465;Laerm;30489;48.982;8.394;2022-09-16T07:08:41;38.72;35.94;41.06;;
40465;Laerm;30489;48.982;8.394;2022-09-16T07:10:56;38.73;35.94;41.38;;
40465;Laerm;30489;48.982;8.394;2022-09-16T07:13:06;38.65;35.66;42.03;;
40465;Laerm;30489;48.982;8.394;2022-09-16T07:15:16;38.65;35.66;40.98;;
40465;Laerm;30489;48.982;8.394;2022-09-16T07:17:26;38.64;36.20;41.06;;
40465;Laerm;30489;48.982;8.394;2022-09-16T07:19:37;38.60;35.36;41.06;;
40465;Laerm;30489;48.982;8.394;2022-09-16T07:21:47;38.59;35.94;43.34;;
40465;Laerm;30489;48.982;8.394;2022-09-16T07:23:58;38.61;35.94;40.89;;
40465;Laerm;30489;48.982;8.394;2022-09-16T07:26:10;38.64;35.66;40.98;;
40465;Laerm;30489;48.982;8.394;2022-09-16T07:28:21;38.76;35.66;41.14;;
40465;Laerm;30489;48.982;8.394;2022-09-16T07:30:31;38.74;36.10;41.30;;
40465;Laerm;30489;48.982;8.394;2022-09-16T07:32:43;38.70;35.94;40.98;;
40465;Laerm;30489;48.982;8.394;2022-09-16T07:34:53;38.67;35.66;40.71;;
40465;Laerm;30489;48.982;8.394;2022-09-16T07:37:03;38.66;35.66;40.80;;
40465;Laerm;30489;48.982;8.394;2022-09-16T07:39:14;38.64;35.94;41.14;;
40465;Laerm;30489;48.982;8.394;2022-09-16T07:41:25;38.64;35.94;40.89;;
40465;Laerm;30489;48.982;8.394;2022-09-16T07:43:37;38.64;35.31;40.98;;
40465;Laerm;30489;48.982;8.394;2022-09-16T07:45:54;38.66;35.94;40.71;;
40465;Laerm;30489;48.982;8.394;2022-09-16T07:48:04;38.65;35.94;40.62;;
40465;Laerm;30489;48.982;8.394;2022-09-16T07:50:14;38.65;35.04;40.89;;
40465;Laerm;30489;48.982;8.394;2022-09-16T07:52:25;38.76;35.94;40.71;;
40465;Laerm;30489;48.982;8.394;2022-09-16T07:54:38;38.65;36.20;41.22;;
40465;Laerm;30489;48.982;8.394;2022-09-16T07:56:48;38.59;35.31;40.80;;
40465;Laerm;30489;48.982;8.394;2022-09-16T07:58:58;38.63;35.66;41.22;;
40465;Laerm;30489;48.982;8.394;2022-09-16T08:01:09;38.63;35.66;40.89;;
40465;Laerm;30489;48.982;8.394;2022-09-16T08:03:19;38.61;35.36;40.71;;
40465;Laerm;30489;48.982;8.394;2022-09-16T08:05:29;38.60;35.94;40.80;;
40465;Laerm;30489;48.982;8.394;2022-09-16T08:07:39;38.70;35.94;40.80;;
40465;Laerm;30489;48.982;8.394;2022-09-16T08:09:49;38.59;35.36;40.71;;
40465;Laerm;30489;48.982;8.394;2022-09-16T08:12:00;38.57;35.94;40.62;;
40465;Laerm;30489;48.982;8.394;2022-09-16T08:14:11;38.55;35.94;40.89;;
40465;Laerm;30489;48.982;8.394;2022-09-16T08:16:21;38.59;36.20;40.53;;
40465;Laerm;30489;48.982;8.394;2022-09-16T08:18:31;38.59;35.94;40.43;;
40465;Laerm;30489;48.982;8.394;2022-09-16T08:20:42;38.55;35.94;41.06;;
40465;Laerm;30489;48.982;8.394;2022-09-16T08:22:52;38.55;35.66;40.80;;
40465;Laerm;30489;48.982;8.394;2022-09-16T08:25:02;38.59;35.36;40.89;;
40465;Laerm;30489;48.982;8.394;2022-09-16T08:27:12;38.57;35.66;40.80;;
40465;Laerm;30489;48.982;8.394;2022-09-16T08:29:23;38.54;35.94;40.43;;
40465;Laerm;30489;48.982;8.394;2022-09-16T08:31:34;38.56;35.94;40.80;;
40465;Laerm;30489;48.982;8.394;2022-09-16T08:33:45;38.57;35.66;40.80;;
40465;Laerm;30489;48.982;8.394;2022-09-16T08:35:56;38.60;35.66;40.71;;
40465;Laerm;30489;48.982;8.394;2022-09-16T08:38:07;38.61;35.94;40.80;;
40465;Laerm;30489;48.982;8.394;2022-09-16T08:40:18;38.58;35.36;40.71;;
40465;Laerm;30489;48.982;8.394;2022-09-16T08:45:11;38.65;36.20;40.98;;
40465;Laerm;30489;48.982;8.394;2022-09-16T08:49:44;38.69;35.86;40.71;;
40465;Laerm;30489;48.982;8.394;2022-09-16T08:51:55;38.61;35.04;40.89;;
40465;Laerm;30489;48.982;8.394;2022-09-16T08:54:23;38.64;36.20;40.80;;
40465;Laerm;30489;48.982;8.394;2022-09-16T08:56:35;38.62;35.66;40.98;;
40465;Laerm;30489;48.982;8.394;2022-09-16T08:58:48;38.57;35.36;40.53;;
40465;Laerm;30489;48.982;8.394;2022-09-16T09:01:02;38.54;36.10;40.62;;
40465;Laerm;30489;48.982;8.394;2022-09-16T09:05:35;38.57;35.94;40.98;;
40465;Laerm;30489;48.982;8.394;2022-09-16T09:19:27;38.72;35.94;40.89;;
40465;Laerm;30489;48.982;8.394;2022-09-16T09:22:04;38.64;36.20;40.71;;
40465;Laerm;30489;48.982;8.394;2022-09-16T09:33:45;38.57;35.94;40.53;;
40465;Laerm;30489;48.982;8.394;2022-09-16T09:36:10;38.59;35.94;40.89;;
40465;Laerm;30489;48.982;8.394;2022-09-16T09:40:52;38.64;35.94;40.98;;
40465;Laerm;30489;48.982;8.394;2022-09-16T09:45:18;38.60;35.94;40.80;;
40465;Laerm;30489;48.982;8.394;2022-09-16T09:47:31;38.59;35.66;40.62;;
40465;Laerm;30489;48.982;8.394;2022-09-16T09:49:44;38.58;35.94;40.53;;
40465;Laerm;30489;48.982;8.394;2022-09-16T09:52:15;38.60;35.94;40.62;;
40465;Laerm;30489;48.982;8.394;2022-09-16T09:56:39;38.57;35.94;40.71;;
40465;Laerm;30489;48.982;8.394;2022-09-16T09:59:54;38.60;35.04;40.71;;
40465;Laerm;30489;48.982;8.394;2022-09-16T10:01:30;38.61;35.66;40.62;;
40465;Laerm;30489;48.982;8.394;2022-09-16T10:03:40;38.60;35.66;40.53;;
40465;Laerm;30489;48.982;8.394;2022-09-16T10:05:50;38.57;35.94;40.53;;
40465;Laerm;30489;48.982;8.394;2022-09-16T10:08:43;38.49;35.94;40.33;;
40465;Laerm;30489;48.982;8.394;2022-09-16T10:10:33;38.56;35.94;40.62;;
40465;Laerm;30489;48.982;8.394;2022-09-16T10:12:44;38.61;35.66;40.62;;
40465;Laerm;30489;48.982;8.394;2022-09-16T10:14:54;38.54;35.66;40.53;;
40465;Laerm;30489;48.982;8.394;2022-09-16T10:17:12;38.57;35.66;40.71;;
40465;Laerm;30489;48.982;8.394;2022-09-16T10:19:24;38.57;35.94;40.53;;
40465;Laerm;30489;48.982;8.394;2022-09-16T10:24:32;38.55;35.66;40.53;;
40465;Laerm;30489;48.982;8.394;2022-09-16T10:26:42;38.56;35.66;41.30;;
40465;Laerm;30489;48.982;8.394;2022-09-16T10:29:10;38.56;35.66;40.62;;
40465;Laerm;30489;48.982;8.394;2022-09-16T10:31:23;38.54;35.66;40.62;;
40465;Laerm;30489;48.982;8.394;2022-09-16T10:33:34;38.55;35.94;40.89;;
40465;Laerm;30489;48.982;8.394;2022-09-16T10:35:59;38.56;35.66;41.06;;
40465;Laerm;30489;48.982;8.394;2022-09-16T10:40:22;38.57;35.94;40.71;;
40465;Laerm;30489;48.982;8.394;2022-09-16T10:42:32;38.56;35.66;40.89;;
40465;Laerm;30489;48.982;8.394;2022-09-16T10:44:43;38.60;35.66;40.62;;
40465;Laerm;30489;48.982;8.394;2022-09-16T10:46:56;38.58;35.66;40.62;;
40465;Laerm;30489;48.982;8.394;2022-09-16T10:49:08;38.59;35.94;40.62;;
40465;Laerm;30489;48.982;8.394;2022-09-16T10:51:23;38.59;35.36;40.33;;
40465;Laerm;30489;48.982;8.394;2022-09-16T10:55:54;38.61;35.66;40.63;;
40465;Laerm;30489;48.982;8.394;2022-09-16T10:58:10;38.62;35.94;40.33;;
40465;Laerm;30489;48.982;8.394;2022-09-16T11:00:24;38.62;36.20;40.62;;
40465;Laerm;30489;48.982;8.394;2022-09-16T11:05:00;38.67;35.04;41.14;;
40465;Laerm;30489;48.982;8.394;2022-09-16T11:09:48;38.70;36.20;41.96;;
40465;Laerm;30489;48.982;8.394;2022-09-16T11:14:36;38.80;36.45;40.62;;
40465;Laerm;30489;48.982;8.394;2022-09-16T11:17:06;38.84;36.20;43.19;;
40465;Laerm;30489;48.982;8.394;2022-09-16T11:19:25;38.94;36.45;41.14;;
40465;Laerm;30489;48.982;8.394;2022-09-16T11:33:27;39.05;36.69;40.80;;
40465;Laerm;30489;48.982;8.394;2022-09-16T11:35:54;39.11;36.45;40.89;;
40465;Laerm;30489;48.982;8.394;2022-09-16T11:40:31;39.60;36.69;41.14;;
40465;Laerm;30489;48.982;8.394;2022-09-16T11:42:47;39.64;37.52;41.14;;
40465;Laerm;30489;48.982;8.394;2022-09-16T11:54:16;40.01;38.21;41.38;;
40465;Laerm;30489;48.982;8.394;2022-09-16T11:56:38;39.83;37.88;41.46;;
40465;Laerm;30489;48.982;8.394;2022-09-16T11:58:51;40.14;37.88;41.68;;
40465;Laerm;30489;48.982;8.394;2022-09-16T12:03:45;40.29;38.52;41.89;;
40465;Laerm;30489;48.982;8.394;2022-09-16T12:05:59;40.13;38.37;41.68;;
40465;Laerm;30489;48.982;8.394;2022-09-16T12:10:44;39.92;38.21;41.61;;
40465;Laerm;30489;48.982;8.394;2022-09-16T12:13:06;40.09;37.88;41.46;;
40465;Laerm;30489;48.982;8.394;2022-09-16T12:15:19;40.35;38.52;41.68;;
40465;Laerm;30489;48.982;8.394;2022-09-16T12:17:34;40.42;38.81;42.03;;
40465;Laerm;30489;48.982;8.394;2022-09-16T12:19:52;40.54;39.21;41.82;;
40465;Laerm;30489;48.982;8.394;2022-09-16T12:22:05;40.57;39.08;42.09;;
40465;Laerm;30489;48.982;8.394;2022-09-16T12:24:26;40.62;38.95;42.16;;
40465;Laerm;30489;48.982;8.394;2022-09-16T12:26:42;40.69;39.21;42.03;;
40465;Laerm;30489;48.982;8.394;2022-09-16T12:28:57;40.79;39.34;41.96;;
40465;Laerm;30489;48.982;8.394;2022-09-16T12:31:12;40.86;39.70;42.24;;
40465;Laerm;30489;48.982;8.394;2022-09-16T12:33:25;40.89;39.34;42.16;;
40465;Laerm;30489;48.982;8.394;2022-09-16T12:37:51;40.98;39.58;42.29;;
40465;Laerm;30489;48.982;8.394;2022-09-16T12:40:03;40.99;39.46;42.47;;
40465;Laerm;30489;48.982;8.394;2022-09-16T12:44:38;41.05;39.58;42.09;;
40465;Laerm;30489;48.982;8.394;2022-09-16T12:49:23;41.19;39.70;42.47;;
40465;Laerm;30489;48.982;8.394;2022-09-16T12:51:44;41.23;40.03;42.53;;
40465;Laerm;30489;48.982;8.394;2022-09-16T13:03:31;40.88;39.34;42.41;;
40465;Laerm;30489;48.982;8.394;2022-09-16T13:05:47;40.87;39.34;42.06;;
40465;Laerm;30489;48.982;8.394;2022-09-16T13:07:59;40.95;39.58;42.16;;
40465;Laerm;30489;48.982;8.394;2022-09-16T13:10:16;40.91;39.08;42.03;;
40465;Laerm;30489;48.982;8.394;2022-09-16T13:12:26;40.88;39.21;42.22;;
40465;Laerm;30489;48.982;8.394;2022-09-16T13:14:50;40.90;39.58;42.41;;
40465;Laerm;30489;48.982;8.394;2022-09-16T13:17:02;40.92;39.58;42.09;;
40465;Laerm;30489;48.982;8.394;2022-09-16T13:21:38;40.92;39.58;42.09;;
40465;Laerm;30489;48.982;8.394;2022-09-16T13:24:34;41.04;39.34;42.29;;
40465;Laerm;30489;48.982;8.394;2022-09-16T13:26:23;41.09;39.46;43.09;;
40465;Laerm;30489;48.982;8.394;2022-09-16T13:28:34;41.09;39.70;42.53;;
40465;Laerm;30489;48.982;8.394;2022-09-16T13:30:45;41.16;39.92;42.35;;
40465;Laerm;30489;48.982;8.394;2022-09-16T13:32:57;41.19;39.78;42.41;;
40465;Laerm;30489;48.982;8.394;2022-09-16T13:37:27;41.16;39.81;42.22;;
40465;Laerm;30489;48.982;8.394;2022-09-16T13:39:37;41.22;39.81;42.47;;
40465;Laerm;30489;48.982;8.394;2022-09-16T13:41:47;41.28;39.81;42.41;;
40465;Laerm;30489;48.982;8.394;2022-09-16T13:43:57;41.21;39.58;42.35;;
40465;Laerm;30489;48.982;8.394;2022-09-16T13:46:12;41.34;39.81;42.53;;
40465;Laerm;30489;48.982;8.394;2022-09-16T13:48:27;41.35;39.81;42.41;;
40465;Laerm;30489;48.982;8.394;2022-09-16T13:50:43;41.55;40.03;42.71;;
40465;Laerm;30489;48.982;8.394;2022-09-16T13:52:55;41.65;40.33;42.76;;
40465;Laerm;30489;48.982;8.394;2022-09-16T13:55:15;41.73;40.53;42.93;;
40465;Laerm;30489;48.982;8.394;2022-09-16T14:02:32;41.81;40.53;42.98;;
40465;Laerm;30489;48.982;8.394;2022-09-16T14:11:36;41.67;40.23;42.82;;
40465;Laerm;30489;48.982;8.394;2022-09-16T14:13:52;41.62;40.33;42.76;;
40465;Laerm;30489;48.982;8.394;2022-09-16T14:16:08;41.64;40.33;42.76;;
40465;Laerm;30489;48.982;8.394;2022-09-16T14:18:25;41.76;40.33;42.93;;
40465;Laerm;30489;48.982;8.394;2022-09-16T14:20:37;41.79;40.53;42.82;;
40465;Laerm;30489;48.982;8.394;2022-09-16T14:22:48;41.91;40.71;44.76;;
40465;Laerm;30489;48.982;8.394;2022-09-16T14:25:50;41.94;40.71;42.98;;
40465;Laerm;30489;48.982;8.394;2022-09-16T14:27:42;42.02;40.71;42.98;;
40465;Laerm;30489;48.982;8.394;2022-09-16T14:29:56;42.15;40.80;43.24;;
40465;Laerm;30489;48.982;8.394;2022-09-16T14:32:10;42.19;40.98;43.24;;
40465;Laerm;30489;48.982;8.394;2022-09-16T14:34:32;42.18;40.89;43.29;;
40465;Laerm;30489;48.982;8.394;2022-09-16T14:36:44;42.19;40.62;43.58;;
40465;Laerm;30489;48.982;8.394;2022-09-16T14:41:08;42.21;40.89;43.19;;
40465;Laerm;30489;48.982;8.394;2022-09-16T14:43:19;42.21;40.89;43.24;;
40465;Laerm;30489;48.982;8.394;2022-09-16T14:45:30;42.22;40.89;43.19;;
40465;Laerm;30489;48.982;8.394;2022-09-16T14:47:41;42.23;40.96;43.44;;
40465;Laerm;30489;48.982;8.394;2022-09-16T14:50:06;42.23;40.89;43.19;;
40465;Laerm;30489;48.982;8.394;2022-09-16T14:52:18;42.21;40.98;43.24;;
40465;Laerm;30489;48.982;8.394;2022-09-16T14:54:29;42.22;41.06;43.34;;
40465;Laerm;30489;48.982;8.394;2022-09-16T14:56:40;42.22;40.98;43.39;;
40465;Laerm;30489;48.982;8.394;2022-09-16T14:58:51;42.23;40.89;43.34;;
40465;Laerm;30489;48.982;8.394;2022-09-16T15:01:03;42.23;40.80;43.29;;
40465;Laerm;30489;48.982;8.394;2022-09-16T15:03:16;42.23;40.80;43.19;;